ダーウィン の空港の天気 - METARとTAF

ダーウィン国際空港 ( YPDN / DRW ) - オーストラリア ノーザンテリトリーダーウィン
飛行場実況気象(Metar)
観測時間08/18 22:30 ACST (08/18 13:00 UTC)
風向・風速静穏 0m/s
視程10km以上
天気現象
なし
気温21℃
湿度78%
気圧1014hPa
METARYPDN 181300Z 00000KT CAVOK 21/17 Q1014
過去の天気等 Google飛行場航空写真 Wunderground天気予報

過去48時間のMETAR

飛行場予報(TAF)
発表時間: 8/18 20:33 ACST (8/18 11:03 UTC)
予報対象時間: 18日21時 ACST ~ 20日3時 ACST
風向・風速南南西 2m/s
視程10km以上
なし
19日1時 ACST から
風向・風速不定 2m/s
視程10km以上
なし
19日5時 ACST から
風向・風速南東 4m/s
視程10km以上
なし
19日14時 ACST から
風向・風速北北西 5m/s
視程10km以上
なし
19日21時 ACST から
風向・風速南南西 2m/s
視程10km以上
なし
20日1時 ACST から
風向・風速不定 2m/s
視程10km以上
なし
TAF YPDN 181103Z 1812/1918 20004KT CAVOK
FM181600 VRB03KT CAVOK
FM182000 14008KT CAVOK
FM190500 33010KT CAVOK
FM191200 20004KT CAVOK
FM191600 VRB03KT CAVOK